Cass, West Virginia
Current Conditions -  °F | °C
As of 9:15 AM on Monday 22 Dec 2014 (Local Time) from KHSP Reporting Station
Moderate Fog Moderate Fog  
Wind Chill: 21°   Ceiling: 300
Heat Index: 28°   Visibility: 0.5mi
Dew Point: 28°   Wind: 7mph
Humidity: 100%   Direction: 130°SE
Pressure: 30.06"   Gusts: NA
Location:  38.4°N, 79.91°W
Report Text: KHSP 221415Z AUTO 13006KT 1/2SM FZFG OVC003 M02/M02 A3006 RMK AO2 T10201020
Loading
Personal Weather Stations






























Interactive Weather Map New forecast layout! Learn more

10-Day Weather Forecast

Advertisements
Track Severe Weather on mobile